Time;durP1;ratioP1;P1;durP2;ratioP2;P2;SDS_P1;SDS_P2;PMS_P1;PMS_P2;Temp;Humidity;BMP_temperature;BMP_pressure;BME280_temperature;BME280_humidity;BME280_pressure;Samples;Min_cycle;Max_cycle;Signal;HPM_P1;HPM_P2
2021/11/17 02:28:20;;;;;;;20.73;12.90;;;;;;;8.16;93.15;98494.34;4886422;29;20644;-88
2021/11/17 02:31:26;;;;;;;21.67;14.30;;;;;;;8.17;94.29;98498.59;4876223;29;20665;-88
2021/11/17 02:34:31;;;;;;;19.50;12.70;;;;;;;8.21;94.41;98494.06;4875681;29;20641;-87
2021/11/17 02:37:44;;;;;;;19.47;13.27;;;;;;;8.18;92.81;98489.06;4870078;29;20629;-88
2021/11/17 02:40:34;;;;;;;20.93;13.17;;;;;;;8.16;93.40;98491.75;4892236;29;20616;-88
2021/11/17 02:43:17;;;;;;;23.60;14.70;;;;;;;8.16;93.00;98481.38;4871190;29;21319;-87
2021/11/17 02:45:58;;;;;;;22.43;13.10;;;;;;;8.15;93.25;98481.44;4875185;29;20671;-87
2021/11/17 02:48:46;;;;;;;23.40;13.57;;;;;;;8.13;94.75;98494.50;4868581;29;20691;-87
2021/11/17 02:51:48;;;;;;;24.60;12.70;;;;;;;8.14;93.26;98497.94;4871478;29;20723;-87
2021/11/17 02:54:36;;;;;;;21.20;12.60;;;;;;;8.13;94.13;98497.09;4860496;29;21247;-86
2021/11/17 02:57:41;;;;;;;23.13;13.63;;;;;;;8.14;93.75;98492.75;4876081;29;20661;-87
2021/11/17 03:00:36;;;;;;;18.73;12.33;;;;;;;8.14;93.83;98495.34;4866430;29;20636;-87
2021/11/17 03:03:28;;;;;;;22.73;13.80;;;;;;;8.12;94.37;98492.81;4856029;29;20665;-88
2021/11/17 03:06:20;;;;;;;24.10;13.27;;;;;;;8.13;93.42;98491.06;4872351;29;20640;-88
2021/11/17 03:09:04;;;;;;;26.77;14.87;;;;;;;8.12;94.28;98485.03;4887143;29;20636;-87
2021/11/17 03:11:56;;;;;;;21.70;13.80;;;;;;;8.14;93.11;98485.78;4865641;29;21208;-87
2021/11/17 03:14:59;;;;;;;21.83;13.93;;;;;;;8.14;93.40;98490.97;4880389;29;20631;-87
2021/11/17 03:17:44;;;;;;;22.00;13.27;;;;;;;8.15;94.46;98492.66;4893808;29;20731;-88
2021/11/17 03:21:00;;;;;;;24.17;13.90;;;;;;;8.17;93.43;98490.81;4877020;29;20647;-88
2021/11/17 03:23:43;;;;;;;23.53;14.63;;;;;;;8.19;93.94;98483.78;4871174;29;20755;-88
2021/11/17 03:26:26;;;;;;;24.23;14.03;;;;;;;8.21;94.05;98492.34;4896497;29;20655;-87
2021/11/17 03:29:09;;;;;;;21.33;13.60;;;;;;;8.23;92.98;98489.66;4878285;29;20655;-87
2021/11/17 03:31:54;;;;;;;23.50;14.33;;;;;;;8.23;93.57;98493.09;4890870;29;20652;-88
2021/11/17 03:34:51;;;;;;;22.03;13.20;;;;;;;8.23;93.63;98492.25;4862448;29;20629;-87
2021/11/17 03:37:40;;;;;;;22.20;14.10;;;;;;;8.25;93.81;98490.41;4873459;29;20644;-88
2021/11/17 03:40:37;;;;;;;22.03;13.47;;;;;;;8.25;93.46;98491.25;4864440;29;20689;-88
2021/11/17 03:43:39;;;;;;;22.83;12.30;;;;;;;8.26;93.18;98490.34;4872911;29;21054;-87
2021/11/17 03:46:35;;;;;;;16.10;10.60;;;;;;;8.26;93.13;98494.69;4875759;29;20691;-87
2021/11/17 03:49:21;;;;;;;19.40;11.53;;;;;;;8.26;93.79;98494.69;4875100;29;20644;-88
2021/11/17 03:52:27;;;;;;;16.13;10.97;;;;;;;8.25;94.13;98488.63;4876351;29;20664;-86
2021/11/17 03:55:27;;;;;;;19.80;12.40;;;;;;;8.25;94.15;98501.63;4876733;29;20680;-86
2021/11/17 03:58:10;;;;;;;18.43;10.60;;;;;;;8.27;94.16;98501.56;4858915;29;20671;-86
2021/11/17 04:01:04;;;;;;;17.37;12.10;;;;;;;8.25;94.64;98499.03;4889239;29;20639;-86
2021/11/17 04:03:47;;;;;;;17.70;11.20;;;;;;;8.26;94.42;98492.09;4893362;29;20759;-86
2021/11/17 04:06:29;;;;;;;18.10;11.00;;;;;;;8.24;94.62;98492.19;4872127;29;20694;-86
2021/11/17 04:09:10;;;;;;;14.80;9.90;;;;;;;8.24;94.16;98488.72;4865334;29;21306;-87
2021/11/17 04:11:51;;;;;;;17.40;10.80;;;;;;;8.26;95.13;98500.72;4877561;29;20742;-88
2021/11/17 04:14:34;;;;;;;20.07;11.17;;;;;;;8.23;93.85;98500.06;4894025;29;20627;-88
2021/11/17 04:17:21;;;;;;;20.40;11.53;;;;;;;8.23;94.27;98506.06;4889266;29;21191;-88
2021/11/17 04:20:07;;;;;;;16.80;11.13;;;;;;;8.26;94.04;98502.50;4861940;29;20723;-88
2021/11/17 04:22:59;;;;;;;18.07;10.90;;;;;;;8.27;94.75;98507.59;4892268;29;20635;-88
2021/11/17 04:25:55;;;;;;;16.17;10.13;;;;;;;8.24;94.94;98506.91;4869591;29;21271;-88
2021/11/17 04:28:47;;;;;;;17.63;10.47;;;;;;;8.25;95.12;98503.41;4858583;29;20738;-88
2021/11/17 04:31:39;;;;;;;20.50;11.20;;;;;;;8.27;94.88;98501.56;4879783;29;20643;-88
2021/11/17 04:34:46;;;;;;;16.03;10.60;;;;;;;8.27;94.72;98507.59;4858152;29;20641;-87
2021/11/17 04:37:35;;;;;;;19.20;10.80;;;;;;;8.28;94.35;98504.06;4849063;29;20648;-88
2021/11/17 04:40:31;;;;;;;18.90;11.98;;;;;;;8.33;94.17;98509.03;4869270;29;21337;-87
2021/11/17 04:43:24;;;;;;;21.43;11.70;;;;;;;8.38;94.94;98509.63;4857625;29;20311;-88
2021/11/17 04:46:11;;;;;;;17.17;11.17;;;;;;;8.43;94.57;98508.47;4888583;29;21132;-88
2021/11/17 04:48:54;;;;;;;18.87;11.90;;;;;;;8.45;94.46;98512.66;4889739;29;20636;-88
2021/11/17 04:51:43;;;;;;;18.13;12.37;;;;;;;8.46;94.11;98501.38;4874036;29;20644;-88
2021/11/17 04:54:29;;;;;;;20.70;11.90;;;;;;;8.46;94.41;98503.97;4877109;29;20643;-88
2021/11/17 04:57:23;;;;;;;19.00;11.30;;;;;;;8.47;94.52;98513.41;4875881;29;20646;-88
2021/11/17 05:00:25;;;;;;;21.47;12.47;;;;;;;8.48;93.83;98507.31;4892273;29;21249;-88
2021/11/17 05:03:08;;;;;;;19.30;11.80;;;;;;;8.49;93.96;98502.94;4877421;29;20691;-88
2021/11/17 05:05:52;;;;;;;18.53;11.20;;;;;;;8.51;94.60;98511.50;4893704;29;21310;-88
2021/11/17 05:08:32;;;;;;;21.80;12.10;;;;;;;8.50;94.18;98513.25;4852664;29;20695;-88
2021/11/17 05:11:12;;;;;;;20.17;11.83;;;;;;;8.51;93.34;98522.75;4874453;29;20655;-88
2021/11/17 05:13:49;;;;;;;20.87;12.50;;;;;;;8.52;93.83;98520.97;4863989;29;20635;-88
2021/11/17 05:16:32;;;;;;;24.80;13.00;;;;;;;8.52;93.18;98518.38;4873032;29;20644;-88
2021/11/17 05:19:09;;;;;;;20.60;11.80;;;;;;;8.53;94.36;98525.25;4860246;29;20648;-88
2021/11/17 05:21:54;;;;;;;20.90;12.40;;;;;;;8.53;93.12;98518.28;4868506;29;20636;-88
2021/11/17 05:24:37;;;;;;;19.70;12.07;;;;;;;8.54;93.76;98521.75;4877756;29;20660;-88
2021/11/17 05:27:18;;;;;;;22.47;13.43;;;;;;;8.53;93.24;98527.84;4874308;29;20684;-88
2021/11/17 05:29:59;;;;;;;18.80;12.03;;;;;;;8.53;93.58;98513.09;4876775;29;20712;-88
2021/11/17 05:32:50;;;;;;;19.60;11.70;;;;;;;8.54;94.48;98521.75;4873162;29;20651;-88
2021/11/17 05:35:31;;;;;;;21.17;11.73;;;;;;;8.55;93.58;98524.25;4867418;29;20643;-88
2021/11/17 05:38:13;;;;;;;18.67;11.73;;;;;;;8.53;92.86;98522.66;4860482;29;21285;-88
2021/11/17 05:41:16;;;;;;;20.90;11.87;;;;;;;8.52;92.86;98528.75;4861843;29;21287;-88
2021/11/17 05:43:56;;;;;;;19.50;11.37;;;;;;;8.46;92.80;98534.28;4874033;29;21341;-88
2021/11/17 05:46:38;;;;;;;22.60;11.63;;;;;;;8.46;93.59;98534.28;4866833;29;20660;-88
2021/11/17 05:49:18;;;;;;;19.73;11.87;;;;;;;8.47;92.42;98536.81;4878686;29;20655;-88
2021/11/17 05:52:09;;;;;;;20.83;12.70;;;;;;;8.46;92.46;98534.28;4890306;29;20643;-88
2021/11/17 05:54:54;;;;;;;18.10;11.43;;;;;;;8.44;92.96;98542.16;4879775;29;20636;-87
2021/11/17 05:57:48;;;;;;;21.93;11.97;;;;;;;8.44;93.66;98546.53;4877132;29;20652;-88
2021/11/17 06:00:37;;;;;;;19.43;12.07;;;;;;;8.43;93.26;98544.84;4860622;29;20859;-87
2021/11/17 06:03:27;;;;;;;23.50;12.30;;;;;;;8.43;93.38;98552.63;4890252;29;20679;-88
2021/11/17 06:06:04;;;;;;;19.30;11.53;;;;;;;8.44;93.20;98556.94;4886977;29;20612;-88
2021/11/17 06:08:32;;;;;;;18.90;11.33;;;;;;;8.44;93.45;98561.28;4862505;29;20638;-88
2021/11/17 06:11:06;;;;;;;20.37;12.37;;;;;;;8.43;92.99;98563.03;4874774;29;20637;-88
2021/11/17 06:13:34;;;;;;;20.07;11.60;;;;;;;8.44;93.45;98554.31;4876068;29;20734;-86
2021/11/17 06:16:04;;;;;;;23.60;12.23;;;;;;;8.44;93.12;98562.13;4892173;29;21018;-87
2021/11/17 06:18:45;;;;;;;17.70;12.27;;;;;;;8.43;93.93;98565.63;4860683;29;20652;-87
2021/11/17 06:21:14;;;;;;;23.57;13.50;;;;;;;8.42;93.61;98561.38;4877894;29;20679;-88
2021/11/17 06:23:47;;;;;;;23.33;13.33;;;;;;;8.42;93.49;98563.97;4855170;29;20640;-87
2021/11/17 06:26:22;;;;;;;22.43;12.97;;;;;;;8.44;92.46;98561.28;4860188;29;20647;-86
2021/11/17 06:29:06;;;;;;;19.93;11.33;;;;;;;8.43;93.05;98570.81;4874143;29;20644;-88
2021/11/17 06:31:37;;;;;;;22.67;12.00;;;;;;;8.43;92.28;98578.63;4858988;29;21352;-88
2021/11/17 06:34:26;;;;;;;21.03;13.00;;;;;;;8.42;92.37;98574.38;4889318;29;20667;-88
2021/11/17 06:36:56;;;;;;;21.27;12.40;;;;;;;8.44;92.50;98576.88;4891301;29;20648;-87
2021/11/17 06:39:26;;;;;;;22.80;12.40;;;;;;;8.46;93.00;98587.13;4881137;29;21061;-87
2021/11/17 06:41:56;;;;;;;22.17;13.00;;;;;;;8.47;93.47;98587.94;4874601;29;20640;-88
2021/11/17 06:44:26;;;;;;;21.13;12.03;;;;;;;8.46;92.71;98583.66;4859667;29;21230;-87
2021/11/17 06:46:54;;;;;;;21.43;11.87;;;;;;;8.48;93.53;98595.66;4852677;29;20631;-88
2021/11/17 06:49:27;;;;;;;20.50;12.40;;;;;;;8.47;92.48;98582.75;4867372;29;20746;-87
2021/11/17 06:51:55;;;;;;;22.43;12.13;;;;;;;8.47;93.34;98593.16;4871708;29;20660;-87
2021/11/17 06:54:24;;;;;;;21.77;13.47;;;;;;;8.49;91.96;98591.31;4889438;29;20640;-88
2021/11/17 06:56:56;;;;;;;19.10;12.00;;;;;;;8.48;92.26;98587.03;4862085;29;20679;-87
2021/11/17 06:59:25;;;;;;;23.03;11.70;;;;;;;8.49;92.13;98596.50;4860338;29;20648;-88
2021/11/17 07:02:05;;;;;;;21.40;12.53;;;;;;;8.49;92.05;98591.31;4872880;29;21188;-87
2021/11/17 07:04:34;;;;;;;19.07;11.67;;;;;;;8.49;93.52;98591.31;4859907;29;23043;-86
2021/11/17 07:07:03;;;;;;;19.90;11.53;;;;;;;8.51;91.73;98597.28;4887962;29;20640;-91
2021/11/17 07:09:37;;;;;;;18.90;10.60;;;;;;;8.53;92.57;98598.03;4853336;29;20653;-90
2021/11/17 07:12:09;;;;;;;20.80;12.07;;;;;;;8.52;92.61;98606.75;4857231;29;21322;-88
2021/11/17 07:14:39;;;;;;;18.03;10.80;;;;;;;8.54;91.44;98617.91;4857035;29;20644;-90
2021/11/17 07:17:07;;;;;;;17.07;11.00;;;;;;;8.51;91.78;98623.28;4852680;29;20654;-90
2021/11/17 07:19:38;;;;;;;17.97;10.53;;;;;;;8.54;91.65;98629.16;4872878;29;20647;-91
2021/11/17 07:22:10;;;;;;;17.77;10.77;;;;;;;8.56;91.17;98634.25;4854441;29;20744;-89
2021/11/17 07:24:40;;;;;;;18.50;10.33;;;;;;;8.57;91.53;98635.97;4863542;29;20725;-89
2021/11/17 07:27:12;;;;;;;19.07;11.10;;;;;;;8.59;92.30;98639.31;4877027;29;21316;-91
2021/11/17 07:29:40;;;;;;;17.80;11.40;;;;;;;8.61;91.32;98642.66;4859059;29;21226;-94
2021/11/17 07:32:09;;;;;;;21.97;11.50;;;;;;;8.63;91.75;98648.59;4864196;29;20641;-91
2021/11/17 07:34:42;;;;;;;18.93;10.80;;;;;;;8.61;90.89;98643.47;4858040;29;20664;-91
2021/11/17 07:37:10;;;;;;;18.87;10.33;;;;;;;8.63;91.68;98646.00;4872319;29;20692;-90
2021/11/17 07:39:42;;;;;;;15.27;8.90;;;;;;;8.64;91.78;98647.69;4876531;29;20647;-90
2021/11/17 07:42:17;;;;;;;19.40;11.00;;;;;;;8.64;91.67;98655.50;4850429;29;21067;-91
2021/11/17 07:44:49;;;;;;;18.13;10.13;;;;;;;8.61;90.16;98653.88;4872925;29;21246;-90
2021/11/17 07:47:17;;;;;;;18.27;10.43;;;;;;;8.60;90.70;98656.56;4857747;29;21093;-90
2021/11/17 07:49:45;;;;;;;18.10;9.80;;;;;;;8.60;90.74;98661.75;4879427;29;20631;-91
2021/11/17 07:52:16;;;;;;;22.33;10.70;;;;;;;8.61;90.17;98663.44;4878763;29;22045;-91
2021/11/17 07:54:47;;;;;;;16.70;9.33;;;;;;;8.62;90.70;98665.97;4861275;29;20696;-91
2021/11/17 07:57:19;;;;;;;16.43;10.33;;;;;;;8.61;91.09;98666.06;4876993;29;21296;-91
2021/11/17 07:59:53;;;;;;;17.80;10.23;;;;;;;8.59;91.10;98673.94;4885194;29;20735;-91
2021/11/17 08:02:32;;;;;;;18.20;9.50;;;;;;;8.61;90.53;98668.66;4880442;29;20627;-90
2021/11/17 08:05:01;;;;;;;16.00;9.33;;;;;;;8.62;90.86;98673.78;4876245;29;20651;-90
2021/11/17 08:07:45;;;;;;;18.47;9.17;;;;;;;8.61;90.40;98679.88;4891851;29;20643;-89
2021/11/17 08:10:18;;;;;;;21.97;10.87;;;;;;;8.59;90.92;98678.31;4863650;29;21243;-90
2021/11/17 08:12:47;;;;;;;16.80;9.90;;;;;;;8.61;90.85;98673.84;4874933;29;20727;-90
2021/11/17 08:15:17;;;;;;;21.90;10.70;;;;;;;8.63;90.51;98679.81;4890352;29;20676;-90
2021/11/17 08:17:45;;;;;;;15.53;9.30;;;;;;;8.64;89.70;98679.72;4864309;29;20639;-90
2021/11/17 08:20:18;;;;;;;26.43;13.27;;;;;;;8.65;90.60;98681.41;4862783;29;21083;-89
2021/11/17 08:22:48;;;;;;;17.43;10.00;;;;;;;8.68;90.48;98683.84;4887798;29;20647;-89
2021/11/17 08:25:20;;;;;;;19.63;10.67;;;;;;;8.70;90.61;98687.22;4872220;29;20707;-90
2021/11/17 08:27:52;;;;;;;18.40;10.40;;;;;;;8.75;90.90;98686.97;4871771;29;20619;-89
2021/11/17 08:30:22;;;;;;;18.13;10.10;;;;;;;8.78;91.05;98686.81;4878355;29;20735;-89
2021/11/17 08:32:50;;;;;;;16.20;9.30;;;;;;;8.78;90.19;98694.63;4874397;29;20628;-89
2021/11/17 08:35:21;;;;;;;15.20;9.13;;;;;;;8.82;90.35;98693.56;4858958;29;20885;-90
2021/11/17 08:37:50;;;;;;;13.57;8.63;;;;;;;8.79;91.09;98694.53;4875168;29;20727;-90
2021/11/17 08:40:20;;;;;;;13.83;7.97;;;;;;;8.80;90.80;98698.00;4866758;29;20652;-90
2021/11/17 08:43:02;;;;;;;11.10;6.60;;;;;;;8.68;89.07;98686.47;4854986;29;20652;-90
2021/11/17 08:45:50;;;;;;;9.40;6.17;;;;;;;8.45;89.44;98689.38;4874541;29;21049;-90
2021/11/17 08:48:20;;;;;;;16.10;6.30;;;;;;;8.37;91.54;98697.66;4872335;29;20649;-89
2021/11/17 08:50:52;;;;;;;11.53;6.60;;;;;;;8.31;91.92;98698.78;4871702;29;21202;-89
2021/11/17 08:53:29;;;;;;;11.60;5.67;;;;;;;8.31;92.22;98690.16;4874716;29;20636;-89
2021/11/17 08:56:06;;;;;;;9.53;5.33;;;;;;;8.27;91.47;98689.47;4884289;29;20638;-89
2021/11/17 08:58:36;;;;;;;10.83;5.30;;;;;;;8.29;91.84;98695.44;4860655;29;20728;-89
2021/11/17 09:01:05;;;;;;;7.87;4.60;;;;;;;8.26;91.09;98700.78;4873872;29;20680;-89
2021/11/17 09:03:45;;;;;;;6.73;4.93;;;;;;;8.21;90.80;98700.16;4863861;29;20666;-90
2021/11/17 09:06:14;;;;;;;8.03;4.80;;;;;;;8.23;91.52;98702.69;4852539;29;21223;-90
2021/11/17 09:08:43;;;;;;;11.10;5.07;;;;;;;8.20;91.81;98706.28;4870649;29;20633;-90
2021/11/17 09:11:19;;;;;;;9.60;5.97;;;;;;;8.21;91.55;98709.69;4866139;29;20655;-90
2021/11/17 09:13:51;;;;;;;12.67;5.93;;;;;;;8.20;91.72;98718.44;4887722;29;20647;-90
2021/11/17 09:16:20;;;;;;;8.97;6.20;;;;;;;8.24;91.51;98718.22;4855390;29;20744;-90
2021/11/17 09:18:50;;;;;;;9.60;5.50;;;;;;;8.23;92.39;98713.09;4872967;29;21323;-90
2021/11/17 09:21:19;;;;;;;8.27;5.27;;;;;;;8.23;91.58;98715.69;4869735;29;20648;-90
2021/11/17 09:23:50;;;;;;;8.97;5.57;;;;;;;8.19;91.08;98717.56;4888126;29;20628;-90
2021/11/17 09:26:22;;;;;;;8.10;5.40;;;;;;;8.25;91.45;98721.63;4861762;29;20660;-90
2021/11/17 09:28:56;;;;;;;7.70;5.77;;;;;;;8.23;90.87;98739.91;4858901;29;20632;-90
2021/11/17 09:31:30;;;;;;;7.90;5.10;;;;;;;8.24;90.58;98727.72;4874413;29;20640;-90
2021/11/17 09:34:08;;;;;;;7.53;5.90;;;;;;;8.26;91.94;98742.34;4877594;29;20637;-89
2021/11/17 09:36:43;;;;;;;7.90;5.30;;;;;;;8.27;90.84;98741.44;4853670;29;21208;-90
2021/11/17 09:39:16;;;;;;;8.20;5.47;;;;;;;8.27;91.77;98746.63;4859869;29;20672;-90
2021/11/17 09:41:47;;;;;;;7.20;4.83;;;;;;;8.34;90.77;98747.16;4858271;29;20663;-90
2021/11/17 09:44:24;;;;;;;8.60;5.23;;;;;;;8.39;90.85;98751.22;4891146;29;20640;-90
2021/11/17 09:46:59;;;;;;;7.70;5.20;;;;;;;8.43;91.68;98746.72;4870294;29;20711;-89
2021/11/17 09:49:31;;;;;;;8.10;5.07;;;;;;;8.43;90.28;98749.31;4870648;29;21219;-90
2021/11/17 09:52:01;;;;;;;11.63;5.70;;;;;;;8.42;90.71;98748.50;4877893;29;20748;-90
2021/11/17 09:54:45;;;;;;;8.30;4.90;;;;;;;8.44;90.23;98751.84;4877073;29;20695;-85
2021/11/17 09:57:16;;;;;;;7.07;4.40;;;;;;;8.43;90.56;98757.13;4875802;29;20640;-91
2021/11/17 09:59:51;;;;;;;6.70;4.27;;;;;;;8.44;91.03;98748.41;4872746;29;20644;-91
2021/11/17 10:02:22;;;;;;;11.13;4.33;;;;;;;8.48;90.97;98758.59;4884755;29;20703;-91
2021/11/17 10:05:01;;;;;;;8.90;5.00;;;;;;;8.51;90.50;98766.22;4865107;29;20746;-91
2021/11/17 10:08:13;;;;;;;6.43;4.50;;;;;;;8.61;90.57;98770.03;4876340;29;20669;-91
2021/11/17 10:13:46;;;;;;;6.83;3.87;;;;;;;8.80;88.99;98760.41;4883034;29;20632;-91
2021/11/17 10:16:23;;;;;;;5.30;3.80;;;;;;;8.90;88.63;98759.00;4884907;29;20638;-91
2021/11/17 10:18:54;;;;;;;5.77;3.47;;;;;;;8.89;88.09;98758.19;4848893;29;21237;-89
2021/11/17 10:21:32;;;;;;;8.67;3.90;;;;;;;8.90;88.57;98759.00;4879242;29;20635;-92
2021/11/17 10:24:12;;;;;;;5.53;2.90;;;;;;;8.92;86.97;98759.78;4880171;29;20718;-92
2021/11/17 10:26:48;;;;;;;4.47;2.60;;;;;;;8.91;86.62;98766.72;4884180;29;20667;-91
2021/11/17 10:29:27;;;;;;;11.47;5.40;;;;;;;8.98;87.07;98771.53;4863677;29;20637;-91
2021/11/17 10:32:00;;;;;;;5.67;2.87;;;;;;;9.02;86.49;98765.28;4875582;29;20646;-92
2021/11/17 10:34:53;;;;;;;4.57;2.70;;;;;;;8.99;84.83;98759.38;4886820;29;20623;-92
2021/11/17 10:37:30;;;;;;;3.00;2.30;;;;;;;8.99;83.75;98765.44;4889643;29;20667;-92
2021/11/17 10:39:58;;;;;;;5.50;3.03;;;;;;;9.01;83.66;98755.78;4876227;29;20644;-91
2021/11/17 10:42:33;;;;;;;2.67;2.00;;;;;;;9.02;84.41;98754.88;4866227;29;21163;-91
2021/11/17 10:45:22;;;;;;;3.97;2.97;;;;;;;9.03;83.36;98751.31;4886565;29;21077;-91
2021/11/17 10:48:20;;;;;;;3.50;1.87;;;;;;;9.00;82.58;98741.09;4877161;29;20820;-90
2021/11/17 10:50:48;;;;;;;3.40;2.40;;;;;;;9.00;81.56;98750.66;4861404;29;20639;-91
2021/11/17 10:53:29;;;;;;;2.90;2.07;;;;;;;8.98;81.36;98745.53;4863733;29;20636;-91
2021/11/17 10:56:04;;;;;;;2.77;1.90;;;;;;;8.93;80.30;98747.53;4884046;29;20743;-90
2021/11/17 10:58:41;;;;;;;3.97;2.60;;;;;;;8.93;81.15;98734.53;4855951;29;20753;-91
2021/11/17 11:01:31;;;;;;;4.10;2.40;;;;;;;8.91;81.64;98739.91;4878155;29;20632;-91
2021/11/17 11:04:03;;;;;;;2.90;2.00;;;;;;;8.89;81.75;98742.56;4850415;29;20668;-91
2021/11/17 11:06:35;;;;;;;2.90;1.87;;;;;;;8.84;81.67;98741.97;4893912;29;20664;-91
2021/11/17 11:09:21;;;;;;;4.00;3.10;;;;;;;8.87;82.08;98741.81;4873459;29;20632;-91
2021/11/17 11:11:53;;;;;;;2.90;1.90;;;;;;;8.88;82.06;98725.28;4874177;29;20742;-91
2021/11/17 11:14:46;;;;;;;3.00;2.10;;;;;;;8.89;81.67;98734.78;4864439;29;20646;-91
2021/11/17 11:17:27;;;;;;;2.70;2.10;;;;;;;8.87;81.51;98739.22;4876570;29;20731;-91
2021/11/17 11:20:31;;;;;;;2.87;1.97;;;;;;;8.86;81.73;98736.69;4880843;29;20676;-91
2021/11/17 11:23:29;;;;;;;2.93;2.10;;;;;;;8.89;82.06;98749.53;4876187;29;20731;-91
2021/11/17 11:26:20;;;;;;;3.10;2.00;;;;;;;8.88;81.57;98758.25;4867623;29;20727;-90
2021/11/17 11:29:18;;;;;;;4.00;2.43;;;;;;;8.82;82.05;98766.38;4886749;29;20775;-91
2021/11/17 11:32:06;;;;;;;2.60;1.83;;;;;;;8.81;82.21;98769.88;4877177;29;20639;-88
2021/11/17 11:34:46;;;;;;;2.73;1.60;;;;;;;8.81;81.03;98770.75;4867521;29;20638;-89
2021/11/17 11:38:01;;;;;;;3.00;1.70;;;;;;;8.83;80.92;98768.06;4888445;29;20627;-91
2021/11/17 11:41:12;;;;;;;2.93;2.17;;;;;;;8.80;80.62;98774.25;4876267;29;20654;-91
2021/11/17 11:43:41;;;;;;;2.33;1.53;;;;;;;8.79;80.92;98761.31;4873674;29;20632;-91
2021/11/17 11:46:28;;;;;;;2.90;1.90;;;;;;;8.83;81.22;98770.66;4876080;29;20704;-90
2021/11/17 11:49:33;;;;;;;2.53;1.73;;;;;;;8.81;81.51;98770.75;4880630;29;20619;-91
2021/11/17 11:52:23;;;;;;;3.57;2.10;;;;;;;8.83;81.18;98762.84;4876761;29;20736;-91
2021/11/17 11:55:18;;;;;;;3.07;2.03;;;;;;;8.87;80.83;98765.22;4885397;29;21216;-91
2021/11/17 11:58:36;;;;;;;2.93;1.90;;;;;;;8.88;81.27;98753.88;4868023;29;20683;-91
2021/11/17 12:01:14;;;;;;;3.00;2.13;;;;;;;8.90;81.06;98756.41;4890399;29;20627;-89
2021/11/17 12:03:52;;;;;;;4.70;2.03;;;;;;;8.93;81.21;98752.75;4864176;29;20655;-90
2021/11/17 12:06:29;;;;;;;2.50;1.70;;;;;;;8.94;81.81;98754.44;4863961;29;20642;-89
2021/11/17 12:09:17;;;;;;;2.60;1.80;;;;;;;8.93;80.96;98757.13;4864206;29;20667;-89
2021/11/17 12:11:52;;;;;;;3.83;2.07;;;;;;;8.90;80.90;98753.81;4866461;29;21066;-91
2021/11/17 12:14:44;;;;;;;2.77;1.97;;;;;;;8.93;80.41;98755.34;4894562;29;20690;-90
2021/11/17 12:17:12;;;;;;;3.07;1.70;;;;;;;8.88;80.41;98758.25;4871840;29;20694;-90
2021/11/17 12:20:22;;;;;;;2.73;2.20;;;;;;;8.86;80.18;98767.91;4860664;29;20639;-90
2021/11/17 12:22:58;;;;;;;3.40;2.30;;;;;;;8.82;80.48;98771.56;4880765;29;21219;-90
2021/11/17 12:25:30;;;;;;;3.07;2.30;;;;;;;8.73;82.14;98772.84;4868006;29;21089;-90
2021/11/17 12:28:05;;;;;;;4.77;3.03;;;;;;;8.74;82.20;98771.94;4888264;29;20715;-90
2021/11/17 12:30:42;;;;;;;7.63;4.40;;;;;;;8.70;81.51;98767.81;4863519;29;20632;-90
2021/11/17 12:33:20;;;;;;;8.20;5.70;;;;;;;8.72;82.23;98767.72;4876190;29;20636;-90
2021/11/17 12:36:14;;;;;;;6.87;4.50;;;;;;;8.69;82.15;98767.88;4890807;29;20617;-90
2021/11/17 12:38:44;;;;;;;8.77;5.37;;;;;;;8.69;82.82;98770.50;4883616;29;20641;-90
2021/11/17 12:41:22;;;;;;;5.90;3.77;;;;;;;8.69;83.22;98760.94;4877244;29;20704;-90
2021/11/17 12:44:01;;;;;;;5.93;3.47;;;;;;;8.69;81.98;98766.16;4890732;29;20639;-90
2021/11/17 12:47:02;;;;;;;11.83;7.37;;;;;;;8.68;83.09;98756.66;4865928;29;20683;-90
2021/11/17 12:49:47;;;;;;;14.70;7.57;;;;;;;8.70;82.70;98766.97;4882309;29;20616;-90
2021/11/17 12:52:20;;;;;;;7.73;5.00;;;;;;;8.72;81.81;98757.34;4861848;29;21314;-90
2021/11/17 12:54:50;;;;;;;7.60;4.83;;;;;;;8.75;81.27;98760.66;4886620;29;20641;-90
2021/11/17 12:57:21;;;;;;;13.50;8.30;;;;;;;8.73;82.20;98762.47;4878197;29;20675;-90
2021/11/17 12:59:53;;;;;;;8.27;5.27;;;;;;;8.73;81.68;98770.25;4877852;29;20637;-90
2021/11/17 13:02:46;;;;;;;8.57;3.80;;;;;;;8.75;82.32;98755.44;4866594;29;21045;-90
2021/11/17 13:05:26;;;;;;;5.27;4.27;;;;;;;8.72;81.46;98759.94;4887206;29;20724;-90
2021/11/17 13:07:58;;;;;;;8.90;3.93;;;;;;;8.75;81.82;98764.97;4879077;29;20664;-90
2021/11/17 13:10:34;;;;;;;6.83;4.43;;;;;;;8.74;81.29;98760.72;4872859;29;20654;-90
2021/11/17 13:13:15;;;;;;;6.00;4.20;;;;;;;8.72;82.75;98768.59;4865635;29;20625;-90
2021/11/17 13:15:55;;;;;;;5.30;3.07;;;;;;;8.74;82.89;98764.16;4890072;29;20691;-90
2021/11/17 13:18:28;;;;;;;9.47;6.17;;;;;;;8.74;81.37;98761.56;4874474;29;20683;-90
2021/11/17 13:21:28;;;;;;;6.10;3.70;;;;;;;8.79;81.96;98750.91;4859380;29;20689;-90
2021/11/17 13:24:11;;;;;;;5.90;3.13;;;;;;;8.76;82.78;98756.28;4881860;29;20667;-90
2021/11/17 13:26:41;;;;;;;3.70;2.77;;;;;;;8.75;82.94;98760.66;4868998;29;20727;-90
2021/11/17 13:29:33;;;;;;;3.93;2.70;;;;;;;8.81;82.88;98755.13;4892250;29;20701;-90
2021/11/17 13:32:25;;;;;;;5.80;3.73;;;;;;;8.77;83.19;98757.97;4857884;29;20641;-90
2021/11/17 13:34:55;;;;;;;4.43;3.00;;;;;;;8.75;81.96;98764.97;4871849;29;21184;-90
2021/11/17 13:37:36;;;;;;;5.30;3.80;;;;;;;8.75;82.32;98764.97;4866560;29;21225;-90
2021/11/17 13:40:18;;;;;;;4.80;2.47;;;;;;;8.68;82.37;98763.63;4862806;29;20707;-90
2021/11/17 13:42:51;;;;;;;3.47;2.10;;;;;;;8.64;81.88;98769.88;4862840;29;20648;-89
2021/11/17 13:45:23;;;;;;;4.83;1.80;;;;;;;8.55;81.57;98772.94;4862664;29;20688;-90
2021/11/17 13:47:53;;;;;;;3.53;2.43;;;;;;;8.55;81.93;98780.75;4869754;29;20727;-94
2021/11/17 13:50:30;;;;;;;4.23;3.00;;;;;;;8.50;82.46;98778.38;4892383;29;20640;-90
2021/11/17 13:52:58;;;;;;;3.37;2.00;;;;;;;8.47;82.19;98767.28;4858378;29;20644;-89
2021/11/17 13:55:30;;;;;;;3.60;2.80;;;;;;;8.47;83.00;98775.09;4882063;29;20672;-89
2021/11/17 13:58:05;;;;;;;3.30;2.13;;;;;;;8.45;83.32;98771.72;4869833;29;20636;-89
2021/11/17 14:00:53;;;;;;;4.47;2.60;;;;;;;8.46;83.05;98776.00;4886554;29;20647;-89
2021/11/17 14:03:23;;;;;;;4.30;3.10;;;;;;;8.48;82.78;98781.97;4885057;29;20665;-90
2021/11/17 14:05:52;;;;;;;7.67;4.27;;;;;;;8.49;82.96;98784.50;4863016;29;21000;-89
2021/11/17 14:08:22;;;;;;;5.87;3.87;;;;;;;8.49;82.89;98783.63;4889621;29;20754;-89
2021/11/17 14:10:50;;;;;;;8.40;5.10;;;;;;;8.44;83.23;98782.19;4871522;29;20629;-89
2021/11/17 14:13:18;;;;;;;6.83;4.20;;;;;;;8.43;82.17;98788.31;4853565;29;20652;-89
2021/11/17 14:15:47;;;;;;;8.00;5.50;;;;;;;8.40;82.79;98786.69;4859269;29;20644;-89
2021/11/17 14:18:15;;;;;;;8.67;5.10;;;;;;;8.43;82.99;98788.31;4876662;29;20700;-89
2021/11/17 14:20:46;;;;;;;8.40;5.30;;;;;;;8.40;82.81;98793.66;4860724;29;20722;-89
2021/11/17 14:23:16;;;;;;;7.47;5.63;;;;;;;8.42;83.64;98786.59;4863606;29;20635;-89
2021/11/17 14:25:49;;;;;;;7.97;4.93;;;;;;;8.44;83.34;98793.44;4888316;29;20664;-89
2021/11/17 14:28:19;;;;;;;15.37;7.50;;;;;;;8.44;83.09;98786.47;4876927;29;20639;-89
2021/11/17 14:30:51;;;;;;;8.23;5.33;;;;;;;8.49;82.88;98796.63;4857466;29;20721;-88
2021/11/17 14:33:23;;;;;;;10.10;6.57;;;;;;;8.50;83.31;98791.34;4864926;29;21196;-90
2021/11/17 14:35:54;;;;;;;8.13;5.43;;;;;;;8.52;82.72;98793.88;4861794;29;20641;-90
2021/11/17 14:38:26;;;;;;;6.10;3.90;;;;;;;8.55;82.44;98793.72;4880133;29;20742;-91
2021/11/17 14:40:54;;;;;;;5.33;3.53;;;;;;;8.59;83.12;98792.69;4859048;29;21168;-89
2021/11/17 14:43:41;;;;;;;12.10;4.10;;;;;;;8.61;82.86;98796.03;4871511;29;20632;-87
2021/11/17 14:46:15;;;;;;;6.67;4.00;;;;;;;8.61;81.55;98804.66;4857111;29;20643;-87
2021/11/17 14:48:48;;;;;;;4.97;3.40;;;;;;;8.61;82.31;98799.47;4877834;29;20668;-91
2021/11/17 14:51:30;;;;;;;4.50;3.37;;;;;;;8.59;82.89;98801.31;4866282;29;20648;-87
2021/11/17 14:54:01;;;;;;;4.00;3.33;;;;;;;8.62;82.66;98800.31;4882605;29;20646;-87
2021/11/17 14:56:29;;;;;;;5.73;4.57;;;;;;;8.63;83.16;98794.19;4881293;29;20662;-87
2021/11/17 14:58:57;;;;;;;5.43;3.40;;;;;;;8.65;82.93;98792.38;4883071;29;20625;-87
2021/11/17 15:01:31;;;;;;;4.77;3.40;;;;;;;8.59;82.04;98796.09;4880850;29;20642;-87
2021/11/17 15:04:02;;;;;;;5.97;3.30;;;;;;;8.55;81.67;98810.19;4896034;29;21271;-87